Time;durP1;ratioP1;P1;durP2;ratioP2;P2;SDS_P1;SDS_P2;PMS_P1;PMS_P2;Temp;Humidity;BMP_temperature;BMP_pressure;BME280_temperature;BME280_humidity;BME280_pressure;Samples;Min_cycle;Max_cycle;Signal;HPM_P1;HPM_P2
2020/12/06 09:35:32;;;;;;;31.07;20.33;;;5.00;99.90;;;;;;5013779;27;167259;-73
2020/12/06 09:37:58;;;;;;;27.83;20.43;;;5.10;99.90;;;;;;5002091;27;171213;-74
2020/12/06 09:40:25;;;;;;;26.50;20.03;;;5.30;99.90;;;;;;4989785;27;169978;-74
2020/12/06 09:42:51;;;;;;;30.53;19.37;;;5.40;99.90;;;;;;4985827;27;169638;-71
2020/12/06 09:45:17;;;;;;;25.93;19.10;;;5.60;99.90;;;;;;4987303;27;169896;-74
2020/12/06 09:47:43;;;;;;;24.40;18.47;;;5.70;99.90;;;;;;4993650;27;172855;-74
2020/12/06 09:50:09;;;;;;;22.83;16.40;;;5.80;99.90;;;;;;5003166;27;170314;-74
2020/12/06 09:52:36;;;;;;;22.87;16.57;;;5.90;99.90;;;;;;4992632;27;170823;-72
2020/12/06 09:55:20;;;;;;;24.33;16.23;;;5.90;99.90;;;;;;4988074;27;170305;-72
2020/12/06 09:57:46;;;;;;;21.20;15.23;;;6.00;99.90;;;;;;4992868;27;171557;-75
2020/12/06 10:00:12;;;;;;;21.13;16.33;;;6.20;99.90;;;;;;4985844;27;169880;-73
2020/12/06 10:02:39;;;;;;;19.63;15.13;;;6.20;99.90;;;;;;4980927;27;169260;-74
2020/12/06 10:05:05;;;;;;;20.37;14.40;;;6.30;99.90;;;;;;4990059;27;170211;-73
2020/12/06 10:07:31;;;;;;;20.90;15.33;;;6.40;99.90;;;;;;4986752;27;171064;-73
2020/12/06 10:09:57;;;;;;;19.73;14.90;;;6.50;99.90;;;;;;4984125;27;169378;-73
2020/12/06 10:12:23;;;;;;;18.77;14.60;;;6.50;99.90;;;;;;4985358;27;169252;-74
2020/12/06 10:14:50;;;;;;;19.47;13.93;;;6.60;99.90;;;;;;4965505;27;169292;-74
2020/12/06 10:17:16;;;;;;;19.83;14.70;;;6.70;99.90;;;;;;4981762;27;170474;-74
2020/12/06 10:19:42;;;;;;;18.60;14.03;;;6.70;99.90;;;;;;4976400;27;169722;-77
2020/12/06 10:22:09;;;;;;;17.40;13.97;;;6.80;99.90;;;;;;4975738;27;169314;-74
2020/12/06 10:24:35;;;;;;;18.40;14.30;;;6.90;99.90;;;;;;4984245;27;169294;-74
2020/12/06 10:27:01;;;;;;;19.87;14.20;;;7.00;99.90;;;;;;5006482;27;171439;-73
2020/12/06 10:29:28;;;;;;;19.13;13.57;;;7.10;99.90;;;;;;4999347;27;170455;-74
2020/12/06 10:31:54;;;;;;;19.37;12.93;;;7.10;99.90;;;;;;4983436;27;169768;-74
2020/12/06 10:34:22;;;;;;;21.07;14.63;;;7.20;99.90;;;;;;4984080;27;169446;-73
2020/12/06 10:36:53;;;;;;;22.47;14.20;;;7.20;99.90;;;;;;4985339;27;170101;-74
2020/12/06 10:39:20;;;;;;;18.83;14.60;;;7.30;99.90;;;;;;4989157;27;170427;-74
2020/12/06 10:41:48;;;;;;;17.33;12.67;;;7.40;99.90;;;;;;4975745;27;171695;-74
2020/12/06 10:44:14;;;;;;;16.40;13.67;;;7.40;99.90;;;;;;4982133;27;169862;-74
2020/12/06 10:46:40;;;;;;;17.97;13.57;;;7.50;99.90;;;;;;4968124;27;171874;-75
2020/12/06 10:49:06;;;;;;;17.87;13.00;;;7.50;99.90;;;;;;4973937;27;170704;-75
2020/12/06 10:51:33;;;;;;;15.63;12.40;;;7.60;99.90;;;;;;4971403;27;169175;-74
2020/12/06 10:53:59;;;;;;;15.90;12.60;;;7.70;99.90;;;;;;4971231;27;170041;-74
2020/12/06 10:56:26;;;;;;;15.63;11.77;;;7.70;99.90;;;;;;4976063;27;171185;-73
2020/12/06 10:58:54;;;;;;;16.90;12.63;;;7.80;99.90;;;;;;4967440;27;169255;-74
2020/12/06 11:01:28;;;;;;;15.30;12.13;;;7.80;99.90;;;;;;4960770;27;169677;-74
2020/12/06 11:03:56;;;;;;;16.53;11.73;;;7.80;99.90;;;;;;4965824;27;169901;-74
2020/12/06 11:06:23;;;;;;;15.20;11.40;;;7.90;99.90;;;;;;4967212;27;170546;-72
2020/12/06 11:08:51;;;;;;;15.07;11.67;;;8.00;99.90;;;;;;4972088;27;170904;-74
2020/12/06 11:11:19;;;;;;;16.53;11.60;;;8.00;99.90;;;;;;4973637;27;170117;-75
2020/12/06 11:13:45;;;;;;;16.93;12.33;;;8.10;99.90;;;;;;4962758;27;169340;-73
2020/12/06 11:16:22;;;;;;;12.57;10.77;;;8.10;99.90;;;;;;4966352;27;170813;-75
2020/12/06 11:18:50;;;;;;;14.87;10.90;;;8.10;99.90;;;;;;4971961;27;171010;-75
2020/12/06 11:21:19;;;;;;;14.47;11.23;;;8.20;99.90;;;;;;4955702;27;169018;-74
2020/12/06 11:23:47;;;;;;;14.17;11.30;;;8.30;99.90;;;;;;4960557;27;169231;-74
2020/12/06 11:26:18;;;;;;;14.00;10.50;;;8.30;99.90;;;;;;4975244;27;170553;-82
2020/12/06 11:28:47;;;;;;;15.47;11.40;;;8.40;99.90;;;;;;4969569;27;169174;-77
2020/12/06 11:31:14;;;;;;;17.17;10.37;;;8.40;99.90;;;;;;4974364;27;169297;-80
2020/12/06 11:33:42;;;;;;;12.97;10.93;;;8.40;99.90;;;;;;4982166;27;172937;-80
2020/12/06 11:36:09;;;;;;;11.73;9.87;;;8.40;99.90;;;;;;4954303;28;170577;-79
2020/12/06 11:38:36;;;;;;;12.93;9.70;;;8.50;99.90;;;;;;4963300;27;169879;-77
2020/12/06 11:41:02;;;;;;;12.30;9.90;;;8.60;99.90;;;;;;4976587;27;168246;-79
2020/12/06 11:43:29;;;;;;;17.53;11.13;;;8.60;99.90;;;;;;4967282;27;169144;-81
2020/12/06 11:45:59;;;;;;;13.13;10.03;;;8.70;99.90;;;;;;4964898;27;170027;-81
2020/12/06 11:48:25;;;;;;;13.37;10.00;;;8.70;99.90;;;;;;4963142;27;171084;-79
2020/12/06 11:50:51;;;;;;;11.50;9.47;;;8.80;99.90;;;;;;4967928;27;169994;-80
2020/12/06 11:53:17;;;;;;;14.63;12.10;;;8.80;99.90;;;;;;4983152;27;169115;-80
2020/12/06 11:55:44;;;;;;;12.10;10.77;;;8.90;99.90;;;;;;4956797;27;170834;-82
2020/12/06 11:58:10;;;;;;;15.63;12.37;;;9.00;99.90;;;;;;4958598;27;171694;-79
2020/12/06 12:00:36;;;;;;;13.33;11.50;;;9.00;99.90;;;;;;4968603;27;169455;-79
2020/12/06 12:03:02;;;;;;;12.47;10.20;;;9.00;99.90;;;;;;4955978;27;169065;-79
2020/12/06 12:05:29;;;;;;;12.00;10.27;;;9.00;99.90;;;;;;4969160;27;170224;-81
2020/12/06 12:07:55;;;;;;;13.53;10.23;;;9.10;99.90;;;;;;4970963;27;169830;-80
2020/12/06 12:10:22;;;;;;;12.37;9.63;;;9.10;99.90;;;;;;4970072;27;169556;-78
2020/12/06 12:12:48;;;;;;;12.10;9.97;;;9.10;99.90;;;;;;4971523;27;168619;-80
2020/12/06 12:15:16;;;;;;;12.67;9.93;;;9.10;99.90;;;;;;4968389;27;171171;-77
2020/12/06 12:17:43;;;;;;;13.13;9.93;;;9.20;99.90;;;;;;4970285;27;170545;-80
2020/12/06 12:20:10;;;;;;;12.47;9.47;;;9.20;99.90;;;;;;4972708;27;168142;-82
2020/12/06 12:22:36;;;;;;;12.03;9.83;;;9.20;99.90;;;;;;4971544;27;168542;-78
2020/12/06 12:25:04;;;;;;;12.10;9.33;;;9.20;99.90;;;;;;4972114;27;167640;-78
2020/12/06 12:27:31;;;;;;;11.63;9.30;;;9.20;99.90;;;;;;4973001;27;167529;-78
2020/12/06 12:29:57;;;;;;;11.30;9.47;;;9.30;99.90;;;;;;4973420;27;167851;-81
2020/12/06 12:32:25;;;;;;;12.93;9.83;;;9.30;99.90;;;;;;4971660;27;167917;-79
2020/12/06 12:34:55;;;;;;;20.37;11.13;;;9.50;99.90;;;;;;4972726;27;168981;-80
2020/12/06 12:37:23;;;;;;;15.37;10.83;;;9.30;99.90;;;;;;4952355;27;169519;-83
2020/12/06 12:39:49;;;;;;;13.80;10.30;;;9.40;99.90;;;;;;4969504;27;169486;-79
2020/12/06 12:42:18;;;;;;;12.37;9.70;;;9.40;99.90;;;;;;4969095;27;170208;-79
2020/12/06 12:44:45;;;;;;;13.37;10.53;;;9.30;99.90;;;;;;4969949;27;166855;-80
2020/12/06 12:47:11;;;;;;;14.33;10.83;;;9.50;99.90;;;;;;4967397;27;169742;-78
2020/12/06 12:49:37;;;;;;;13.53;9.83;;;9.30;99.90;;;;;;4969694;27;169785;-82
2020/12/06 12:52:04;;;;;;;12.13;10.03;;;9.40;99.90;;;;;;4952423;27;169218;-80
2020/12/06 12:54:30;;;;;;;12.30;9.63;;;9.40;99.90;;;;;;4969232;27;170235;-80
2020/12/06 12:56:57;;;;;;;12.90;10.00;;;9.40;99.90;;;;;;4972679;27;169806;-80
2020/12/06 12:59:23;;;;;;;12.77;9.73;;;9.40;99.90;;;;;;4969881;27;169184;-80
2020/12/06 13:01:50;;;;;;;12.80;9.67;;;9.40;99.90;;;;;;4970836;27;167841;-80
2020/12/06 13:04:19;;;;;;;15.93;10.50;;;9.30;99.90;;;;;;4968033;27;167624;-79
2020/12/06 13:06:51;;;;;;;12.57;10.57;;;9.30;99.90;;;;;;4968240;27;170316;-79
2020/12/06 13:09:17;;;;;;;15.17;10.47;;;9.30;99.90;;;;;;4967513;27;169572;-78
2020/12/06 13:11:43;;;;;;;10.80;9.67;;;9.40;99.90;;;;;;4969160;27;168989;-79
2020/12/06 13:14:09;;;;;;;14.13;10.30;;;9.40;99.90;;;;;;4969990;27;168314;-79
2020/12/06 13:16:36;;;;;;;12.33;10.60;;;9.40;99.90;;;;;;4970262;27;169967;-81
2020/12/06 13:19:02;;;;;;;12.40;10.47;;;9.40;99.90;;;;;;4969727;27;169609;-83
2020/12/06 13:21:28;;;;;;;12.60;10.10;;;9.40;99.90;;;;;;4966596;27;171449;-78
2020/12/06 13:23:55;;;;;;;13.00;10.53;;;9.40;99.90;;;;;;4967124;27;173064;-80
2020/12/06 13:26:22;;;;;;;13.10;10.43;;;9.40;99.90;;;;;;4968894;27;169558;-81
2020/12/06 13:28:49;;;;;;;12.03;9.63;;;9.40;99.90;;;;;;4948964;27;169288;-82
2020/12/06 13:31:22;;;;;;;14.83;10.53;;;9.40;99.90;;;;;;4953853;27;168361;-80
2020/12/06 13:33:49;;;;;;;14.43;10.57;;;9.40;99.90;;;;;;4966302;27;170677;-83
2020/12/06 13:36:20;;;;;;;12.50;10.03;;;9.40;99.90;;;;;;4960207;27;169870;-81
2020/12/06 13:38:51;;;;;;;11.63;9.90;;;9.50;99.90;;;;;;4946739;27;169509;-79
2020/12/06 13:41:17;;;;;;;12.63;9.63;;;9.50;99.90;;;;;;4962302;27;169700;-79
2020/12/06 13:43:46;;;;;;;12.97;9.67;;;9.60;99.90;;;;;;4969424;27;169178;-79
2020/12/06 13:46:12;;;;;;;11.90;9.80;;;9.50;99.90;;;;;;4952999;27;169204;-80
2020/12/06 13:48:39;;;;;;;12.00;9.93;;;9.50;99.90;;;;;;4962939;27;169108;-79
2020/12/06 13:51:05;;;;;;;12.40;10.23;;;9.50;99.90;;;;;;4967959;27;171415;-79
2020/12/06 13:53:31;;;;;;;13.57;9.83;;;9.50;99.90;;;;;;4964340;27;170849;-81
2020/12/06 13:55:58;;;;;;;10.73;9.33;;;9.60;99.90;;;;;;4964521;27;171589;-79
2020/12/06 13:58:25;;;;;;;12.43;10.10;;;9.40;99.90;;;;;;4954772;27;169891;-78
2020/12/06 14:00:52;;;;;;;13.13;9.67;;;9.40;99.90;;;;;;4962391;27;169932;-82
2020/12/06 14:03:19;;;;;;;11.53;9.73;;;9.40;99.90;;;;;;4969538;27;170452;-83
2020/12/06 14:05:46;;;;;;;11.63;9.87;;;9.40;99.90;;;;;;4951950;27;168665;-77
2020/12/06 14:08:13;;;;;;;11.60;9.93;;;9.40;99.90;;;;;;4960957;27;170064;-80
2020/12/06 14:10:39;;;;;;;12.47;10.37;;;9.40;99.90;;;;;;4950327;28;169207;-82
2020/12/06 14:13:06;;;;;;;12.17;10.00;;;9.40;99.90;;;;;;4958569;27;171069;-80
2020/12/06 14:15:32;;;;;;;13.67;10.23;;;9.30;99.90;;;;;;4955321;27;173596;-80
2020/12/06 14:17:58;;;;;;;11.43;9.90;;;9.60;99.90;;;;;;4980959;27;169156;-80
2020/12/06 14:20:24;;;;;;;10.77;9.47;;;9.30;99.90;;;;;;4963686;27;170272;-78
2020/12/06 14:22:51;;;;;;;11.90;9.83;;;9.30;99.90;;;;;;4972345;27;169722;-79
2020/12/06 14:25:17;;;;;;;12.97;9.37;;;9.30;99.90;;;;;;4981470;27;168990;-79
2020/12/06 14:27:43;;;;;;;13.83;10.10;;;9.30;99.90;;;;;;4947274;28;170641;-79
2020/12/06 14:30:10;;;;;;;12.10;9.93;;;9.30;99.90;;;;;;4951661;27;171383;-79
2020/12/06 14:32:36;;;;;;;13.13;10.30;;;9.20;99.90;;;;;;4970307;27;169072;-80
2020/12/06 14:35:03;;;;;;;11.87;10.10;;;9.20;99.90;;;;;;4970587;27;169660;-79
2020/12/06 14:37:30;;;;;;;12.20;10.43;;;9.20;99.90;;;;;;4968056;27;170210;-79
2020/12/06 14:39:56;;;;;;;11.90;10.03;;;9.20;99.90;;;;;;4954489;27;172152;-78
2020/12/06 14:42:23;;;;;;;10.63;9.07;;;9.10;99.90;;;;;;4967025;27;170171;-77
2020/12/06 14:44:51;;;;;;;12.17;10.30;;;9.10;99.90;;;;;;4973352;27;169226;-78
2020/12/06 14:47:17;;;;;;;12.27;9.97;;;9.10;99.90;;;;;;4948898;27;170846;-79
2020/12/06 14:49:44;;;;;;;12.37;10.20;;;8.80;99.90;;;;;;4969947;27;169190;-77
2020/12/06 14:52:10;;;;;;;13.50;10.40;;;9.10;99.90;;;;;;4967949;27;170559;-79
2020/12/06 14:54:36;;;;;;;15.03;10.20;;;9.10;99.90;;;;;;4966217;27;172798;-78
2020/12/06 14:57:03;;;;;;;12.03;9.83;;;9.00;99.90;;;;;;4967071;27;169538;-78
2020/12/06 14:59:29;;;;;;;10.90;9.73;;;9.00;99.90;;;;;;4974064;27;169918;-78
2020/12/06 15:01:56;;;;;;;12.27;10.23;;;9.00;99.90;;;;;;4956532;27;169954;-79
2020/12/06 15:04:23;;;;;;;12.73;10.30;;;9.00;99.90;;;;;;4959516;27;173814;-79
2020/12/06 15:06:49;;;;;;;12.70;10.23;;;9.00;99.90;;;;;;4965905;27;169064;-79
2020/12/06 15:09:15;;;;;;;12.47;10.43;;;9.00;99.90;;;;;;4971799;27;169937;-79
2020/12/06 15:11:42;;;;;;;11.13;9.83;;;8.90;99.90;;;;;;4967444;27;173545;-78
2020/12/06 15:14:08;;;;;;;14.57;9.70;;;8.90;99.90;;;;;;4961853;27;170862;-78
2020/12/06 15:16:36;;;;;;;12.43;9.83;;;8.90;99.90;;;;;;4950126;27;170349;-78
2020/12/06 15:19:03;;;;;;;11.70;10.00;;;8.90;99.90;;;;;;4966331;27;169912;-79
2020/12/06 15:21:29;;;;;;;13.70;10.90;;;8.90;99.90;;;;;;4952125;27;170101;-78
2020/12/06 15:23:56;;;;;;;14.93;10.23;;;8.90;99.90;;;;;;4973904;27;170455;-79
2020/12/06 15:26:22;;;;;;;11.73;9.87;;;8.90;99.90;;;;;;4972906;27;170152;-78
2020/12/06 15:28:49;;;;;;;13.87;10.57;;;8.80;99.90;;;;;;4955273;27;172528;-78
2020/12/06 15:31:15;;;;;;;12.30;9.97;;;8.80;99.90;;;;;;4960664;27;171067;-79
2020/12/06 15:33:42;;;;;;;13.10;10.23;;;8.80;99.90;;;;;;4956468;27;172989;-78
2020/12/06 15:36:14;;;;;;;12.57;10.93;;;8.80;99.90;;;;;;4971325;27;169746;-77
2020/12/06 15:38:42;;;;;;;14.73;10.90;;;8.80;99.90;;;;;;4951784;27;170561;-78
2020/12/06 15:41:13;;;;;;;12.63;10.23;;;8.80;99.90;;;;;;4966260;27;170446;-79
2020/12/06 15:43:40;;;;;;;12.27;10.67;;;8.80;99.90;;;;;;4970630;27;169434;-78
2020/12/06 15:46:07;;;;;;;22.80;10.80;;;8.70;99.90;;;;;;4970794;27;169887;-78
2020/12/06 15:48:35;;;;;;;11.33;9.43;;;8.70;99.90;;;;;;4973019;27;171114;-78
2020/12/06 15:51:14;;;;;;;15.53;10.20;;;8.70;99.90;;;;;;4970589;27;170601;-79
2020/12/06 15:53:42;;;;;;;11.50;10.17;;;8.70;99.90;;;;;;4938049;27;172798;-77
2020/12/06 15:56:14;;;;;;;11.87;9.60;;;8.70;99.90;;;;;;4971641;27;170343;-79
2020/12/06 15:58:41;;;;;;;13.47;9.93;;;8.90;99.90;;;;;;4974406;27;168800;-79
2020/12/06 16:01:08;;;;;;;10.77;9.30;;;8.60;99.90;;;;;;4967053;27;168463;-76
2020/12/06 16:03:38;;;;;;;14.23;10.23;;;8.70;99.90;;;;;;4964542;27;168402;-78
2020/12/06 16:06:06;;;;;;;12.27;9.63;;;8.70;99.90;;;;;;4968578;27;170855;-79
2020/12/06 16:08:33;;;;;;;12.13;9.83;;;8.60;99.90;;;;;;4969558;27;169871;-79
2020/12/06 16:11:00;;;;;;;11.90;9.67;;;8.60;99.90;;;;;;4958929;27;169087;-75
2020/12/06 16:13:27;;;;;;;10.63;9.20;;;8.50;99.90;;;;;;4966192;27;170932;-79
2020/12/06 16:15:54;;;;;;;13.87;9.50;;;8.60;99.90;;;;;;4968200;27;169538;-79
2020/12/06 16:18:21;;;;;;;13.97;10.40;;;8.60;99.90;;;;;;4956925;27;171498;-77
2020/12/06 16:20:47;;;;;;;13.20;9.47;;;8.50;99.90;;;;;;4969790;27;170519;-79
2020/12/06 16:23:14;;;;;;;10.73;9.37;;;8.60;99.90;;;;;;4970868;27;170458;-79
2020/12/06 16:25:40;;;;;;;13.10;9.70;;;8.50;99.90;;;;;;4971967;27;169010;-79
2020/12/06 16:28:07;;;;;;;10.63;9.23;;;8.50;99.90;;;;;;4952189;27;173140;-78
2020/12/06 16:30:33;;;;;;;11.17;9.30;;;8.50;99.90;;;;;;4972346;27;168902;-79
2020/12/06 16:32:59;;;;;;;11.90;9.43;;;8.50;99.90;;;;;;4986027;27;168383;-78
2020/12/06 16:35:25;;;;;;;12.70;10.30;;;8.50;99.90;;;;;;4992337;27;170203;-78
2020/12/06 16:37:51;;;;;;;10.77;9.23;;;8.50;99.90;;;;;;4989948;27;170460;-80
2020/12/06 16:40:18;;;;;;;12.07;10.20;;;8.50;99.90;;;;;;4969928;27;169052;-79
2020/12/06 16:42:46;;;;;;;14.67;10.33;;;8.50;99.90;;;;;;4948743;27;171679;-78
2020/12/06 16:45:23;;;;;;;11.50;9.67;;;8.50;99.90;;;;;;4954252;27;169850;-79
2020/12/06 16:48:00;;;;;;;10.87;9.53;;;8.50;99.90;;;;;;4971925;27;170958;-80
2020/12/06 16:50:29;;;;;;;16.33;10.37;;;8.60;99.90;;;;;;4971125;27;168721;-78
2020/12/06 16:53:01;;;;;;;11.03;9.27;;;8.50;99.90;;;;;;4962871;27;169588;-79
2020/12/06 16:55:28;;;;;;;11.37;9.57;;;8.50;99.90;;;;;;4964486;27;170381;-79
2020/12/06 16:57:56;;;;;;;10.50;9.20;;;8.50;99.90;;;;;;4958405;27;172826;-79
2020/12/06 17:00:25;;;;;;;13.33;9.70;;;8.50;99.90;;;;;;4971046;27;168898;-79
2020/12/06 17:02:51;;;;;;;11.57;9.60;;;8.50;99.90;;;;;;4952326;27;168921;-79
2020/12/06 17:05:18;;;;;;;17.53;10.17;;;8.40;99.90;;;;;;4971439;27;169051;-78
2020/12/06 17:07:45;;;;;;;11.70;9.47;;;8.50;99.90;;;;;;4968537;27;171551;-80
2020/12/06 17:10:12;;;;;;;12.87;9.63;;;8.50;99.90;;;;;;4972087;27;171949;-80
2020/12/06 17:12:42;;;;;;;12.60;9.63;;;8.50;99.90;;;;;;4952420;27;169843;-79
2020/12/06 17:15:12;;;;;;;11.97;10.03;;;8.50;99.90;;;;;;4952860;27;171625;-80
2020/12/06 17:17:38;;;;;;;10.87;9.70;;;8.50;99.90;;;;;;4968829;27;173150;-77
2020/12/06 17:20:20;;;;;;;10.47;9.17;;;8.50;99.90;;;;;;4957764;27;168700;-79
2020/12/06 17:22:47;;;;;;;18.57;9.87;;;8.50;99.90;;;;;;4962239;27;170502;-80
2020/12/06 17:25:13;;;;;;;11.40;9.73;;;8.50;99.90;;;;;;4959243;27;168304;-79
2020/12/06 17:27:40;;;;;;;12.80;9.67;;;8.50;99.90;;;;;;4951221;28;170429;-80
2020/12/06 17:30:12;;;;;;;11.27;9.70;;;8.80;99.90;;;;;;4951055;28;168789;-79
2020/12/06 17:32:41;;;;;;;17.87;10.90;;;8.70;99.90;;;;;;4958467;27;170021;-78
2020/12/06 17:35:07;;;;;;;11.83;9.37;;;8.40;99.90;;;;;;4962578;27;169988;-78
2020/12/06 17:37:36;;;;;;;11.97;9.60;;;8.50;99.90;;;;;;4949735;28;169996;-77
2020/12/06 17:40:03;;;;;;;13.47;10.13;;;8.40;99.90;;;;;;4951022;27;169551;-79
2020/12/06 17:42:30;;;;;;;12.77;9.90;;;8.50;99.90;;;;;;4959386;27;170554;-76
2020/12/06 17:44:56;;;;;;;17.27;10.23;;;8.60;99.90;;;;;;4967685;27;169433;-78
2020/12/06 17:47:23;;;;;;;11.60;9.50;;;8.40;99.90;;;;;;4946186;27;172664;-79
2020/12/06 17:49:49;;;;;;;12.90;10.10;;;8.50;99.90;;;;;;4959037;27;168149;-78
2020/12/06 17:52:21;;;;;;;16.70;10.20;;;8.40;99.90;;;;;;4962858;27;170861;-79
2020/12/06 17:54:51;;;;;;;12.20;10.07;;;8.40;99.90;;;;;;4958012;27;172060;-78
2020/12/06 17:57:17;;;;;;;13.67;10.17;;;8.50;99.90;;;;;;4956147;27;171457;-79
2020/12/06 17:59:43;;;;;;;14.23;10.00;;;8.40;99.90;;;;;;4963435;27;170020;-77
2020/12/06 18:02:10;;;;;;;12.10;9.83;;;8.40;99.90;;;;;;4978638;27;170943;-78
2020/12/06 18:04:36;;;;;;;12.23;9.87;;;8.40;99.90;;;;;;4966584;27;170136;-79
2020/12/06 18:07:02;;;;;;;11.23;9.57;;;8.40;99.90;;;;;;4955629;27;169557;-78
2020/12/06 18:09:29;;;;;;;11.10;9.47;;;8.40;99.90;;;;;;4973577;27;169175;-75
2020/12/06 18:11:56;;;;;;;19.83;10.57;;;8.40;99.90;;;;;;4963282;27;169213;-80
2020/12/06 18:14:24;;;;;;;11.20;9.47;;;8.40;99.90;;;;;;4963569;27;169234;-79
2020/12/06 18:16:51;;;;;;;16.50;9.90;;;8.40;99.90;;;;;;4989965;27;169846;-81
2020/12/06 18:19:19;;;;;;;15.13;10.07;;;8.50;99.90;;;;;;4962725;27;168571;-79
2020/12/06 18:21:46;;;;;;;14.63;9.87;;;8.50;99.90;;;;;;4960822;27;170543;-80
2020/12/06 18:24:12;;;;;;;11.77;9.57;;;8.40;99.90;;;;;;4970194;27;169028;-79
2020/12/06 18:26:38;;;;;;;12.57;9.30;;;8.60;99.90;;;;;;4960861;27;169634;-77
2020/12/06 18:29:06;;;;;;;12.63;9.60;;;8.70;99.90;;;;;;4953515;28;168899;-81
2020/12/06 18:31:35;;;;;;;13.03;9.50;;;8.40;99.90;;;;;;4952766;28;168454;-81
2020/12/06 18:34:04;;;;;;;17.10;9.63;;;8.40;99.90;;;;;;4971114;27;170123;-80
2020/12/06 18:36:30;;;;;;;12.43;10.03;;;8.40;99.90;;;;;;4966772;27;170061;-79
2020/12/06 18:38:58;;;;;;;12.10;10.43;;;8.40;99.90;;;;;;4970757;27;175736;-81
2020/12/06 18:41:28;;;;;;;11.17;9.50;;;8.40;99.90;;;;;;4951259;27;170052;-80
2020/12/06 18:44:18;;;;;;;11.40;9.37;;;8.40;99.90;;;;;;4943035;27;170812;-81
2020/12/06 18:46:44;;;;;;;16.93;9.80;;;8.40;99.90;;;;;;4969428;27;170882;-79
2020/12/06 18:49:13;;;;;;;11.17;9.23;;;8.40;99.90;;;;;;4964833;27;170567;-81
2020/12/06 18:51:43;;;;;;;14.30;9.53;;;8.40;99.90;;;;;;4970671;27;168474;-79
2020/12/06 18:54:10;;;;;;;14.07;9.93;;;8.40;99.90;;;;;;4959696;27;169600;-79
2020/12/06 18:56:37;;;;;;;12.23;9.40;;;8.40;99.90;;;;;;4973400;27;169372;-79
2020/12/06 18:59:03;;;;;;;11.37;9.17;;;8.40;99.90;;;;;;4973368;27;168610;-79
2020/12/06 19:01:30;;;;;;;14.97;9.40;;;8.40;99.90;;;;;;4972759;27;168470;-80
2020/12/06 19:03:59;;;;;;;14.00;9.47;;;8.50;99.90;;;;;;4988683;27;168480;-80
2020/12/06 19:06:25;;;;;;;11.80;9.50;;;8.40;99.90;;;;;;4972387;27;169753;-81
2020/12/06 19:08:52;;;;;;;16.93;9.77;;;8.40;99.90;;;;;;4973357;27;170169;-80
2020/12/06 19:11:20;;;;;;;12.97;9.27;;;8.40;99.90;;;;;;4971848;27;170878;-81
2020/12/06 19:13:46;;;;;;;12.50;9.17;;;8.40;99.90;;;;;;4973177;27;168369;-80
2020/12/06 19:16:15;;;;;;;16.43;9.97;;;8.50;99.90;;;;;;4968147;27;172037;-78
2020/12/06 19:18:43;;;;;;;17.10;9.90;;;8.40;99.90;;;;;;4966829;27;171142;-81
2020/12/06 19:21:13;;;;;;;44.63;14.93;;;8.40;99.90;;;;;;4971166;27;169675;-82
2020/12/06 19:23:41;;;;;;;31.17;23.07;;;8.40;99.90;;;;;;4963413;27;169374;-80
2020/12/06 19:26:10;;;;;;;14.23;12.03;;;8.40;99.90;;;;;;4962236;27;170240;-81
2020/12/06 19:28:37;;;;;;;13.93;10.93;;;8.40;99.90;;;;;;4972610;27;172225;-80
2020/12/06 19:31:03;;;;;;;12.50;10.13;;;8.40;99.90;;;;;;4974246;27;169247;-79
2020/12/06 19:33:29;;;;;;;11.67;9.90;;;8.40;99.90;;;;;;4968528;27;170868;-79
2020/12/06 19:35:58;;;;;;;12.10;10.40;;;8.40;99.90;;;;;;4961956;27;173294;-82
2020/12/06 19:38:30;;;;;;;13.30;9.93;;;8.40;99.90;;;;;;4974005;27;170328;-80
2020/12/06 19:41:02;;;;;;;11.57;9.40;;;8.40;99.90;;;;;;4957601;27;172895;-81
2020/12/06 19:43:28;;;;;;;15.87;9.93;;;8.40;99.90;;;;;;4970532;27;168871;-80
2020/12/06 19:45:55;;;;;;;11.90;9.07;;;8.50;99.90;;;;;;4975577;27;169805;-75
2020/12/06 19:48:31;;;;;;;11.87;8.83;;;8.40;99.90;;;;;;4975378;27;169548;-82
2020/12/06 19:51:00;;;;;;;11.93;9.20;;;8.50;99.90;;;;;;4975757;27;168390;-80
2020/12/06 19:53:29;;;;;;;13.20;9.87;;;8.50;99.90;;;;;;4975417;27;167547;-80
2020/12/06 19:55:59;;;;;;;12.00;10.00;;;8.50;99.90;;;;;;4957008;27;174565;-80
2020/12/06 19:58:25;;;;;;;14.63;10.33;;;8.50;99.90;;;;;;4968561;27;170041;-81
2020/12/06 20:00:54;;;;;;;12.13;9.57;;;8.50;99.90;;;;;;4969284;27;172716;-80
2020/12/06 20:03:23;;;;;;;11.80;9.63;;;8.50;99.90;;;;;;4973052;27;169144;-81
2020/12/06 20:05:51;;;;;;;18.50;11.83;;;8.50;99.90;;;;;;4974886;27;170331;-82
2020/12/06 20:08:20;;;;;;;22.97;13.20;;;8.50;99.90;;;;;;4963915;27;172881;-79
2020/12/06 20:10:56;;;;;;;21.57;16.37;;;8.50;99.90;;;;;;4963537;27;169453;-78
2020/12/06 20:13:24;;;;;;;18.90;12.53;;;8.50;99.90;;;;;;4949221;27;169169;-81
2020/12/06 20:16:00;;;;;;;31.20;13.97;;;8.30;99.90;;;;;;4953204;27;171219;-81
2020/12/06 20:18:26;;;;;;;15.50;11.27;;;8.50;99.90;;;;;;4950980;27;172299;-74
2020/12/06 20:21:03;;;;;;;14.83;11.10;;;8.50;99.90;;;;;;4955877;27;169256;-81
2020/12/06 20:23:32;;;;;;;15.07;11.27;;;8.50;99.90;;;;;;4934866;27;170427;-81
2020/12/06 20:26:05;;;;;;;18.80;11.80;;;8.50;99.90;;;;;;4956144;27;173426;-79
2020/12/06 20:28:47;;;;;;;16.57;11.33;;;8.50;99.90;;;;;;4960687;27;169961;-79
2020/12/06 20:31:41;;;;;;;15.13;12.27;;;8.50;99.90;;;;;;4959353;27;174511;-83
2020/12/06 20:34:19;;;;;;;26.57;16.70;;;8.50;99.90;;;;;;4964098;27;171563;-79
2020/12/06 20:36:59;;;;;;;33.87;22.47;;;8.50;99.90;;;;;;4950851;27;169279;-80
2020/12/06 20:39:33;;;;;;;15.60;11.33;;;8.40;99.90;;;;;;4951415;27;173493;-76
2020/12/06 20:42:34;;;;;;;15.73;11.93;;;8.60;99.90;;;;;;4930734;28;171675;-81
2020/12/06 20:45:03;;;;;;;16.87;12.00;;;8.70;99.90;;;;;;4954825;27;169766;-80
2020/12/06 20:47:37;;;;;;;14.53;11.80;;;8.50;99.90;;;;;;4950108;27;169291;-81
2020/12/06 20:50:06;;;;;;;29.63;13.40;;;8.60;99.90;;;;;;4946559;27;172884;-81
2020/12/06 20:52:35;;;;;;;17.17;12.33;;;8.50;99.90;;;;;;4964347;27;170227;-81
2020/12/06 20:55:04;;;;;;;16.50;13.00;;;8.30;99.90;;;;;;4965061;27;169237;-82
2020/12/06 20:57:33;;;;;;;17.00;12.50;;;8.40;99.90;;;;;;4964652;27;169890;-83
2020/12/06 21:00:03;;;;;;;22.77;12.83;;;8.50;99.90;;;;;;4936607;27;170282;-79
2020/12/06 21:02:35;;;;;;;15.93;12.20;;;8.40;99.90;;;;;;4950821;27;170798;-82
2020/12/06 21:05:04;;;;;;;17.70;12.60;;;8.40;99.90;;;;;;4960617;27;170167;-81
2020/12/06 21:07:34;;;;;;;16.03;12.30;;;8.30;99.90;;;;;;4964892;27;169793;-82
2020/12/06 21:10:01;;;;;;;21.30;13.83;;;8.40;99.90;;;;;;4952735;27;172887;-81
2020/12/06 21:12:30;;;;;;;17.37;13.10;;;8.30;99.90;;;;;;4958269;27;170784;-80
2020/12/06 21:14:59;;;;;;;24.10;14.50;;;8.40;99.90;;;;;;4968161;27;169620;-81
2020/12/06 21:17:34;;;;;;;32.50;15.77;;;8.30;99.90;;;;;;4951670;27;171099;-80
2020/12/06 21:20:16;;;;;;;21.23;13.87;;;8.20;99.90;;;;;;4952684;27;169916;-81
2020/12/06 21:22:46;;;;;;;16.67;12.83;;;8.20;99.90;;;;;;4956607;27;170878;-77
2020/12/06 21:25:12;;;;;;;21.07;13.40;;;8.20;99.90;;;;;;4949736;27;169737;-81
2020/12/06 21:27:39;;;;;;;19.17;14.00;;;8.30;99.90;;;;;;4953377;27;170468;-81
2020/12/06 21:30:10;;;;;;;18.20;13.23;;;8.20;99.90;;;;;;4955570;27;170041;-79
2020/12/06 21:32:41;;;;;;;21.90;14.20;;;8.20;99.90;;;;;;4955304;27;170745;-79
2020/12/06 21:35:08;;;;;;;17.43;13.67;;;8.20;99.90;;;;;;4953404;27;170382;-79
2020/12/06 21:37:37;;;;;;;17.03;13.53;;;8.10;99.90;;;;;;4954731;27;170066;-79
2020/12/06 21:40:05;;;;;;;17.70;13.67;;;8.10;99.90;;;;;;4964623;27;171994;-78
2020/12/06 21:42:36;;;;;;;17.90;13.43;;;8.10;99.90;;;;;;4949476;27;171843;-80
2020/12/06 21:45:04;;;;;;;20.13;13.73;;;8.10;99.90;;;;;;4949738;28;169223;-79
2020/12/06 21:47:30;;;;;;;17.60;13.80;;;8.10;99.90;;;;;;4957653;27;171688;-80
2020/12/06 21:50:00;;;;;;;18.33;14.40;;;8.10;99.90;;;;;;4952074;27;169262;-81
2020/12/06 21:52:28;;;;;;;19.67;14.10;;;8.00;99.90;;;;;;4955604;27;169738;-78
2020/12/06 21:54:56;;;;;;;18.73;13.90;;;8.00;99.90;;;;;;4967568;27;170473;-79
2020/12/06 21:57:44;;;;;;;18.20;13.93;;;7.90;99.90;;;;;;4952761;27;170127;-71
2020/12/06 22:00:12;;;;;;;19.60;13.97;;;8.00;99.90;;;;;;4958868;27;170549;-80
2020/12/06 22:02:41;;;;;;;18.07;13.57;;;8.00;99.90;;;;;;4957910;27;171032;-79
2020/12/06 22:05:08;;;;;;;17.17;13.00;;;8.00;99.90;;;;;;4971650;27;169188;-78
2020/12/06 22:07:34;;;;;;;18.23;13.57;;;8.00;99.90;;;;;;4967248;27;171560;-80
2020/12/06 22:10:03;;;;;;;23.77;14.43;;;8.00;99.90;;;;;;4967810;27;171918;-79